Flight Track Log - Related Links

Times and Time Zones

All times are in EDT time to prevent confusion due to time zone crossing. See the N597HS flight status page for this flight to view local times or setup timezone preferences in your user account.

Time Position Orientation Groundspeed Altitude Reporting Facility
EDT Latitude Longitude Course Direction KTS MPH feet Rate Location/Type
Sat 12:43:39 PM 33.8000 -111.9333 18° North 150 173 7,800  Level Phoenix TRACON
Sat 12:44:13 PM 33.8139 -111.9281 18° North 148 170 8,200 625 Climbing Albuquerque Center
Sat 12:45:15 PM 33.8558 -111.9275 North 150 173 8,800 537 Climbing Albuquerque Center
Sat 12:46:16 PM 33.8997 -111.9267 North 154 177 9,300 537 Climbing Albuquerque Center
Sat 12:47:18 PM 33.9428 -111.9253 North 153 176 9,900 532 Climbing Albuquerque Center
Sat 12:48:00 PM 33.8358 -111.8267 18° North  Level Estimated
Sat 12:48:20 PM 33.9864 -111.9247 North 154 177 10,400  Level Albuquerque Center
Sat 12:49:21 PM 34.0339 -111.9225 North 169 194 10,300 -98 Descending Albuquerque Center
Sat 12:51:00 PM 34.0919 -111.8975 20° North  Level Estimated
Sat 12:58:00 PM 34.3380 -111.7910 20° North  Level Estimated
Sat 12:59:00 PM 34.3731 -111.7757 20° North  Level Estimated
Sat 01:00:00 PM 34.4083 -111.7604 20° North  Level Estimated
Sat 01:01:00 PM 34.4434 -111.7451 20° North  Level Estimated
Sat 01:02:00 PM 34.4786 -111.7299 20° North  Level Estimated
Sat 01:03:00 PM 34.5137 -111.7145 20° North  Level Estimated
Sat 01:04:00 PM 34.5489 -111.6992 20° North  Level Estimated
Sat 01:05:00 PM 34.5840 -111.6839 20° North  Level Estimated
Sat 01:06:00 PM 34.6191 -111.6685 20° North  Level Estimated
Sat 01:07:00 PM 34.6543 -111.6531 20° North  Level Estimated
Sat 01:08:00 PM 34.6894 -111.6377 20° North  Level Estimated
Sat 01:09:00 PM 34.7245 -111.6224 20° North  Level Estimated
Sat 01:10:00 PM 34.7597 -111.6069 20° North  Level Estimated
Sat 01:11:00 PM 34.7948 -111.5915 20° North  Level Estimated
Sat 01:12:00 PM 34.8299 -111.5761 20° North  Level Estimated
Sat 01:13:00 PM 34.8650 -111.5606 20° North  Level Estimated
Sat 01:14:00 PM 34.9001 -111.5452 20° North  Level Estimated
Sat 01:15:00 PM 34.9352 -111.5297 20° North  Level Estimated
Sat 01:16:00 PM 34.9704 -111.5142 20° North  Level Estimated
Sat 01:17:00 PM 35.0055 -111.4987 20° North  Level Estimated
Sat 01:18:00 PM 35.0406 -111.4832 20° North  Level Estimated
Sat 01:19:00 PM 35.0757 -111.4677 20° North  Level Estimated
Sat 01:20:00 PM 35.1108 -111.4521 20° North  Level Estimated
Sat 01:21:00 PM 35.1459 -111.4366 20° North  Level Estimated
Sat 01:22:00 PM 35.1810 -111.4210 20° North  Level Estimated
Sat 01:23:00 PM 35.2161 -111.4054 20° North  Level Estimated
Sat 01:24:00 PM 35.2512 -111.3898 20° North  Level Estimated
Sat 01:25:00 PM 35.2863 -111.3742 20° North  Level Estimated
Sat 01:26:00 PM 35.3214 -111.3586 20° North  Level Estimated
Sat 01:27:00 PM 35.3565 -111.3430 20° North  Level Estimated
Sat 01:28:00 PM 35.3916 -111.3273 20° North  Level Estimated
Sat 01:29:00 PM 35.4267 -111.3117 20° North  Level Estimated
Sat 01:30:00 PM 35.4618 -111.2960 20° North  Level Estimated
Sat 01:31:00 PM 35.4969 -111.2803 20° North  Level Estimated
Sat 01:32:00 PM 35.5320 -111.2646 20° North  Level Estimated
Sat 01:33:00 PM 35.5670 -111.2489 20° North  Level Estimated
Sat 01:34:00 PM 35.6021 -111.2331 20° North  Level Estimated
Sat 01:35:00 PM 35.6372 -111.2174 20° North  Level Estimated
Sat 01:36:00 PM 35.6723 -111.2017 20° North  Level Estimated
Sat 01:37:00 PM 35.7073 -111.1859 20° North  Level Estimated
Sat 01:38:00 PM 35.7424 -111.1701 20° North  Level Estimated
Sat 01:39:00 PM 35.7775 -111.1543 20° North  Level Estimated
Sat 01:40:00 PM 35.8125 -111.1385 20° North  Level Estimated
Sat 01:41:00 PM 35.8476 -111.1227 20° North  Level Estimated
Sat 01:42:00 PM 35.8827 -111.1068 20° North  Level Estimated
Sat 01:43:00 PM 35.9177 -111.0910 20° North  Level Estimated
Sat 01:44:00 PM 35.9528 -111.0751 20° North  Level Estimated
Sat 01:45:00 PM 35.9878 -111.0592 20° North  Level Estimated
Sat 01:46:00 PM 36.0229 -111.0433 20° North  Level Estimated
Sat 01:47:00 PM 36.0579 -111.0274 20° North  Level Estimated
Sat 01:48:00 PM 36.0930 -111.0115 20° North  Level Estimated
Sat 01:49:00 PM 36.1280 -110.9955 20° North  Level Estimated
Sat 01:50:00 PM 36.1631 -110.9796 20° North  Level Estimated
Sat 01:51:00 PM 36.1981 -110.9636 20° North  Level Estimated
Sat 01:52:00 PM 36.2332 -110.9476 20° North  Level Estimated
Sat 01:53:00 PM 36.2682 -110.9316 20° North  Level Estimated
Sat 01:54:00 PM 36.3032 -110.9156 20° North  Level Estimated
Sat 01:55:00 PM 36.3383 -110.8996 20° North  Level Estimated
Sat 01:56:00 PM 36.3733 -110.8835 20° North  Level Estimated
Sat 01:57:00 PM 36.4084 -110.8675 20° North  Level Estimated
Sat 01:58:00 PM 36.4434 -110.8514 20° North  Level Estimated
Sat 01:59:00 PM 36.4784 -110.8353 20° North  Level Estimated
Sat 02:00:00 PM 36.5134 -110.8192 20° North  Level Estimated
Sat 02:01:00 PM 36.5485 -110.8031 20° North  Level Estimated
Sat 02:02:00 PM 36.5835 -110.7870 20° North  Level Estimated
Sat 02:03:00 PM 36.6185 -110.7708 20° North  Level Estimated
Sat 02:04:00 PM 36.6535 -110.7547 20° North  Level Estimated
Sat 02:05:00 PM 36.6885 -110.7385 20° North  Level Estimated
Sat 02:06:00 PM 36.7235 -110.7223 20° North  Level Estimated
Sat 02:07:00 PM 36.7585 -110.7061 20° North  Level Estimated
Sat 02:08:00 PM 36.7935 -110.6899 20° North  Level Estimated
Sat 02:09:00 PM 36.8285 -110.6737 20° North  Level Estimated
Sat 02:10:00 PM 36.8635 -110.6574 20° North  Level Estimated
Sat 02:11:00 PM 36.8985 -110.6412 20° North  Level Estimated
Sat 02:12:00 PM 36.9336 -110.6249 20° North  Level Estimated
Sat 02:13:00 PM 36.9686 -110.6086 20° North  Level Estimated
Sat 02:14:00 PM 37.0035 -110.5923 20° North  Level Estimated
Sat 02:15:00 PM 37.0385 -110.5760 20° North  Level Estimated
Sat 02:16:00 PM 37.0735 -110.5596 20° North  Level Estimated
Sat 02:17:00 PM 37.1085 -110.5433 20° North  Level Estimated
Sat 02:18:00 PM 37.1435 -110.5269 20° North  Level Estimated
Sat 02:19:00 PM 37.1785 -110.5105 20° North  Level Estimated
Sat 02:20:00 PM 37.2135 -110.4941 20° North  Level Estimated
Sat 02:21:00 PM 37.2484 -110.4777 20° North  Level Estimated
Sat 02:22:00 PM 37.2834 -110.4613 20° North  Level Estimated
Sat 02:23:00 PM 37.3184 -110.4448 20° North  Level Estimated
Sat 02:24:00 PM 37.3534 -110.4284 21° North  Level Estimated
Sat 02:25:00 PM 37.3883 -110.4119 21° North  Level Estimated
Sat 02:26:00 PM 37.4233 -110.3954 21° North  Level Estimated
Sat 02:27:00 PM 37.4582 -110.3789 21° North  Level Estimated
Sat 02:28:00 PM 37.4932 -110.3624 21° North  Level Estimated
Sat 02:29:00 PM 37.5282 -110.3459 21° North  Level Estimated
Sat 02:30:00 PM 37.5631 -110.3293 21° North  Level Estimated
Sat 02:31:00 PM 37.5981 -110.3128 21° North  Level Estimated
Sat 02:32:00 PM 37.6330 -110.2962 21° North  Level Estimated
Sat 02:33:00 PM 37.6680 -110.2796 21° North  Level Estimated
Sat 02:34:00 PM 37.7029 -110.2630 21° North  Level Estimated
Sat 02:35:00 PM 37.7379 -110.2463 21° North  Level Estimated
Sat 02:36:00 PM 37.7728 -110.2297 21° North  Level Estimated
Sat 02:37:00 PM 37.8078 -110.2130 21° North  Level Estimated
Sat 02:38:00 PM 37.8427 -110.1964 21° North  Level Estimated
Sat 02:39:00 PM 37.8776 -110.1797 21° North  Level Estimated
Sat 02:40:00 PM 37.9126 -110.1629 21° North  Level Estimated
Sat 02:41:00 PM 37.9475 -110.1462 21° North  Level Estimated
Sat 02:42:00 PM 37.9824 -110.1295 21° North  Level Estimated
Sat 02:43:00 PM 38.0174 -110.1127 21° North  Level Estimated
Sat 02:44:00 PM 38.0523 -110.0960 21° North  Level Estimated
Sat 02:45:00 PM 38.0872 -110.0792 21° North  Level Estimated
Sat 02:46:00 PM 38.1221 -110.0624 21° North  Level Estimated
Sat 02:47:00 PM 38.1570 -110.0456 21° North  Level Estimated
Sat 02:48:00 PM 38.1920 -110.0287 21° North  Level Estimated
Sat 02:49:00 PM 38.2269 -110.0119 21° North  Level Estimated
Sat 02:50:00 PM 38.2618 -109.9950 21° North  Level Estimated
Sat 02:51:00 PM 38.2967 -109.9781 21° North  Level Estimated
Sat 02:52:00 PM 38.3316 -109.9612 21° North  Level Estimated
Sat 02:53:00 PM 38.3665 -109.9443 21° North  Level Estimated
Sat 02:54:00 PM 38.4014 -109.9274 21° North  Level Estimated
Sat 02:55:00 PM 38.4363 -109.9104 21° North  Level Estimated
Sat 02:56:00 PM 38.4712 -109.8935 21° North  Level Estimated
Sat 02:57:00 PM 38.5061 -109.8765 21° North  Level Estimated
Sat 02:58:00 PM 38.5410 -109.8595 21° North  Level Estimated
Sat 02:59:00 PM 38.5759 -109.8425 21° North  Level Estimated
Sat 03:00:00 PM 38.6107 -109.8254 21° North  Level Estimated
Sat 03:01:00 PM 38.6456 -109.8084 21° North  Level Estimated
Sat 03:02:00 PM 38.6805 -109.7913 21° North  Level Estimated
Sat 03:03:00 PM 38.7154 -109.7742 21° North  Level Estimated
Sat 03:04:00 PM 38.7503 -109.7571 21° North  Level Estimated
Sat 03:05:00 PM 38.7550 -109.7548 21° North  Level Estimated
Sat 03:06:00 PM 38.7550 -109.7548 218° Southwest  Level Estimated
Sat 03:07:00 PM 38.7550 -109.7548 218° Southwest  Level Estimated
Sat 03:08:00 PM 38.7550 -109.7548 218° Southwest  Level Estimated
Sat 03:09:00 PM 38.7550 -109.7548 218° Southwest  Level Estimated
Sat 03:10:00 PM 38.7550 -109.7548 218° Southwest  Level Estimated
Sat 03:11:00 PM 38.7550 -109.7548 218° Southwest  Level Estimated
Sat 03:12:00 PM 38.7550 -109.7548 218° Southwest  Level Estimated
Sat 03:13:00 PM 38.7550 -109.7548 218° Southwest  Level Estimated
Sat 03:14:00 PM 38.7550 -109.7548 218° Southwest  Level Estimated
Sat 03:15:00 PM 38.7550 -109.7548 218° Southwest  Level Estimated
Sat 03:16:00 PM 38.7550 -109.7548 218° Southwest  Level Estimated
Sat 03:17:00 PM 38.7550 -109.7548 218° Southwest  Level Estimated
Sat 03:18:00 PM 38.7550 -109.7548 218° Southwest  Level Estimated
Sat 03:19:00 PM 38.7550 -109.7548 218° Southwest  Level Estimated
Sat 03:20:00 PM 38.7550 -109.7548 218° Southwest  Level Estimated
Sat 03:21:00 PM 38.7550 -109.7548 218° Southwest  Level Estimated
Sat 03:22:00 PM 38.7550 -109.7548 218° Southwest  Level Estimated
Sat 03:23:00 PM 38.7550 -109.7548 218° Southwest  Level Estimated

Login

Don't have an account? Register now (free) for customized features, flight alerts, and more!